»·PEaware :: N101PK KSMO-KFUL

N101PK :: KSMO-KFUL

FLIGHT INFORMATION

Flight Status: Arrived
Operator: Privately registered:
United States
More flights under this callsign
Pilot: Bruce B. (293)
Aircraft: AUGUSTA MODEL A 109/A/A-II
(A109)
More flights by this aircraft type
Origin: KSMO Santa Monica Mun
United States
Destination: KFUL Fullerton Mun
United States
More flights between these airports :: More routes between these airports
Route: +SMO SMO125 V64 SLI
File this flight plan on PilotEdge
Remarks: / V /
Altitude:
(Current/Filed)
5,000ft
Speed:
(Current/Filed)
120kts
Departed: 13-May-13 03:41 PM
Arrived: 13-May-13 04:06 PM
Distance/Time
Traveled:
25nm/0:25
Distance/Time
To Go:
Arrived

Flight Plot

Page will automatically refresh every two minutes.


Map Options




Map Legend


Flown Route
Filed Route
Departure Airport
Arrival Airport
Navaid (VOR, NDB)
Fix

Horizontal Profiles

Position Reports

Time Latitude Longitude Heading Altitude Ground
Speed
13-May-13 15:19 34.016374 -118.448912 13 178ft 0kts
13-May-13 15:20 34.016374 -118.448912 13 178ft 0kts
13-May-13 15:21 34.016374 -118.448912 13 178ft 0kts
13-May-13 15:22 34.016374 -118.448912 13 178ft 0kts
13-May-13 15:23 34.016374 -118.448912 13 178ft 0kts
13-May-13 15:24 34.016374 -118.448912 13 178ft 0kts
13-May-13 15:25 34.016374 -118.448912 13 178ft 0kts
13-May-13 15:26 34.016374 -118.448912 13 178ft 0kts
13-May-13 15:27 34.016375 -118.448912 13 178ft 0kts
13-May-13 15:28 34.016375 -118.448912 13 178ft 0kts
13-May-13 15:29 34.016375 -118.448912 13 178ft 0kts
13-May-13 15:30 34.016375 -118.448912 13 178ft 0kts
13-May-13 15:31 34.016375 -118.448912 13 178ft 0kts
13-May-13 15:32 34.016375 -118.448912 13 178ft 0kts
13-May-13 15:33 34.016376 -118.448911 13 178ft 0kts
13-May-13 15:34 34.016376 -118.448911 13 178ft 0kts
13-May-13 15:35 34.016376 -118.448911 13 178ft 0kts
13-May-13 15:36 34.016377 -118.448911 13 178ft 0kts
13-May-13 15:37 34.016377 -118.448911 13 178ft 0kts
13-May-13 15:38 34.016406 -118.448867 8 192ft 2kts
13-May-13 15:39 34.018787 -118.446224 40 197ft 6kts
13-May-13 15:40 34.019950 -118.445585 322 178ft 0kts
13-May-13 15:41 34.019951 -118.445583 329 180ft 0kts
13-May-13 15:42 34.017145 -118.450158 234 533ft 49kts
13-May-13 15:43 34.005775 -118.466530 213 1207ft 65kts
13-May-13 15:44 33.999888 -118.486235 264 1724ft 85kts
13-May-13 15:45 33.996823 -118.520536 262 2192ft 94kts
13-May-13 15:46 34.003725 -118.543300 11 2660ft 79kts
13-May-13 15:47 34.012864 -118.519191 82 3130ft 98kts
13-May-13 15:48 34.015266 -118.484832 84 3591ft 104kts
13-May-13 15:49 34.017132 -118.449569 100 3977ft 109kts
13-May-13 15:50 33.997183 -118.421774 143 3954ft 119kts
13-May-13 15:51 33.969794 -118.396302 144 3932ft 125kts
13-May-13 15:52 33.942646 -118.371878 156 3935ft 124kts
13-May-13 15:53 33.910862 -118.354964 150 3910ft 126kts
13-May-13 15:54 33.882440 -118.330134 136 3910ft 126kts
13-May-13 15:55 33.857354 -118.300095 134 3911ft 126kts
13-May-13 15:56 33.839746 -118.266151 93 3926ft 121kts
13-May-13 15:57 33.837215 -118.224867 90 3910ft 124kts
13-May-13 15:58 33.835274 -118.183269 90 3912ft 125kts
13-May-13 15:59 33.833423 -118.141609 90 3914ft 125kts
13-May-13 16:00 33.831850 -118.098524 90 3572ft 138kts
13-May-13 16:01 33.831106 -118.054884 89 3131ft 135kts
13-May-13 16:02 33.831441 -118.006658 78 1377ft 128kts
13-May-13 16:03 33.839522 -117.988780 20 1640ft 54kts
13-May-13 16:04 33.848653 -117.967424 83 1445ft 92kts
13-May-13 16:05 33.862221 -117.952782 339 929ft 96kts
13-May-13 16:06 33.875032 -117.963546 262 465ft 57kts
13-May-13 16:07 33.872457 -117.977347 270 111ft 7kts
13-May-13 16:08 33.871895 -117.977615 174 104ft 4kts
13-May-13 16:09 33.870727 -117.977194 268 106ft 2kts
13-May-13 16:09 33.870731 -117.977223 272 99ft 0kts

Navigation Log

Ident Type
Flight plan parsing failed, navigation log unavailable